Time;durP1;ratioP1;P1;durP2;ratioP2;P2;SDS_P1;SDS_P2;PMS_P1;PMS_P2;Temp;Humidity;BMP_temperature;BMP_pressure;BME280_temperature;BME280_humidity;BME280_pressure;Samples;Min_cycle;Max_cycle;Signal;HPM_P1;HPM_P2
2023/08/28 00:00:28;;;;;;;4.57;4.18;;;13.70;99.90;;;;;;5035733;28;20566;-86
2023/08/28 00:02:54;;;;;;;6.25;4.13;;;13.60;99.90;;;;;;5035626;28;20045;-87
2023/08/28 00:05:20;;;;;;;9.85;4.18;;;13.70;99.90;;;;;;5034487;28;20076;-87
2023/08/28 00:07:46;;;;;;;5.90;4.43;;;13.60;99.90;;;;;;5071449;28;20047;-86
2023/08/28 00:10:12;;;;;;;8.70;4.43;;;13.60;99.90;;;;;;5054454;28;20048;-87
2023/08/28 00:12:40;;;;;;;5.50;3.83;;;13.60;99.90;;;;;;5071143;28;20395;-88
2023/08/28 00:15:11;;;;;;;5.88;4.10;;;13.60;99.90;;;;;;5071285;28;20349;-87
2023/08/28 00:17:39;;;;;;;5.65;3.78;;;13.60;99.90;;;;;;5051093;28;20042;-86
2023/08/28 00:20:09;;;;;;;6.68;3.58;;;13.60;99.90;;;;;;5051070;28;20069;-86
2023/08/28 00:22:38;;;;;;;9.77;3.95;;;13.60;99.90;;;;;;5050407;28;20037;-88
2023/08/28 00:25:06;;;;;;;6.50;3.42;;;13.60;99.90;;;;;;5034319;28;20170;-88
2023/08/28 00:27:32;;;;;;;3.92;3.28;;;13.60;99.90;;;;;;5040736;28;20043;-86
2023/08/28 00:29:57;;;;;;;4.90;3.60;;;13.60;99.90;;;;;;5033873;28;20053;-87
2023/08/28 00:32:25;;;;;;;6.10;4.15;;;13.60;99.90;;;;;;5034826;28;20056;-87
2023/08/28 00:34:51;;;;;;;7.00;4.10;;;13.60;99.90;;;;;;5037069;28;20480;-87
2023/08/28 00:37:17;;;;;;;7.68;4.00;;;13.50;99.90;;;;;;5021048;28;20888;-86
2023/08/28 00:39:43;;;;;;;8.30;4.30;;;13.50;99.90;;;;;;5034231;28;20045;-86
2023/08/28 00:42:09;;;;;;;5.93;4.50;;;13.50;99.90;;;;;;5059777;28;20503;-86
2023/08/28 00:44:34;;;;;;;7.57;4.72;;;13.50;99.90;;;;;;5054073;28;20076;-87
2023/08/28 00:47:02;;;;;;;9.10;4.82;;;13.50;99.90;;;;;;5038578;28;20107;-86
2023/08/28 00:49:29;;;;;;;6.78;5.28;;;13.50;99.90;;;;;;5033601;28;20042;-87
2023/08/28 00:51:56;;;;;;;10.23;5.22;;;13.40;99.90;;;;;;5033692;28;20047;-87
2023/08/28 00:54:22;;;;;;;7.45;5.07;;;13.40;99.90;;;;;;5033656;28;20056;-86
2023/08/28 00:56:48;;;;;;;7.55;5.00;;;13.40;99.90;;;;;;5042267;28;20049;-87
2023/08/28 00:59:15;;;;;;;10.45;4.90;;;13.40;99.90;;;;;;5050339;28;20131;-86
2023/08/28 01:01:41;;;;;;;5.65;5.05;;;13.40;99.90;;;;;;5037204;28;20041;-87
2023/08/28 01:04:07;;;;;;;10.05;5.22;;;13.40;99.90;;;;;;5050389;28;20047;-87
2023/08/28 01:06:33;;;;;;;7.95;5.85;;;13.40;99.90;;;;;;5038040;28;20120;-86
2023/08/28 01:09:19;;;;;;;7.82;5.70;;;13.40;99.90;;;;;;5037968;28;20120;-86
2023/08/28 01:11:48;;;;;;;10.57;6.40;;;13.40;99.90;;;;;;5056168;28;20515;-86
2023/08/28 01:14:28;;;;;;;9.55;5.63;;;13.30;99.90;;;;;;5065864;28;20044;-86
2023/08/28 01:17:07;;;;;;;8.65;5.80;;;13.30;99.90;;;;;;5069417;28;20102;-86
2023/08/28 01:19:42;;;;;;;6.95;5.80;;;13.30;99.90;;;;;;5056149;28;20086;-87
2023/08/28 01:22:39;;;;;;;6.50;5.22;;;13.20;99.90;;;;;;5062677;28;20373;-86
2023/08/28 01:25:10;;;;;;;9.93;6.07;;;13.20;99.90;;;;;;5074406;28;20072;-86
2023/08/28 01:27:38;;;;;;;6.32;4.95;;;13.20;99.90;;;;;;5054659;28;20036;-86
2023/08/28 01:30:10;;;;;;;9.48;5.20;;;13.20;99.90;;;;;;5041755;28;20052;-86
2023/08/28 01:32:36;;;;;;;;;;;13.10;99.90;;;;;;5041587;28;20098;-86
2023/08/28 01:35:08;;;;;;;5.05;4.32;;;13.10;99.90;;;;;;5052655;28;20387;-86
2023/08/28 01:37:49;;;;;;;6.65;4.82;;;13.10;99.90;;;;;;5052611;28;20048;-86
2023/08/28 01:40:17;;;;;;;7.75;5.05;;;13.10;99.90;;;;;;5040197;28;20051;-87
2023/08/28 01:42:49;;;;;;;5.65;4.18;;;13.10;99.90;;;;;;5037130;28;20099;-86
2023/08/28 01:45:15;;;;;;;7.78;4.60;;;13.10;99.90;;;;;;5058837;28;20051;-87
2023/08/28 01:47:41;;;;;;;6.68;4.45;;;13.10;99.90;;;;;;5036514;28;20071;-88
2023/08/28 01:50:07;;;;;;;7.05;4.93;;;13.00;99.90;;;;;;5037424;28;20105;-86
2023/08/28 01:52:33;;;;;;;5.47;4.90;;;13.00;99.90;;;;;;5037086;28;20048;-85
2023/08/28 01:54:59;;;;;;;6.05;4.93;;;12.90;99.90;;;;;;5039075;28;20044;-87
2023/08/28 01:57:25;;;;;;;5.85;4.93;;;12.90;99.90;;;;;;5057015;28;20563;-86
2023/08/28 01:59:51;;;;;;;9.32;5.30;;;12.90;99.90;;;;;;5056814;28;20083;-87
2023/08/28 02:02:17;;;;;;;6.10;5.18;;;12.90;99.90;;;;;;5066780;28;20186;-85
2023/08/28 02:04:42;;;;;;;10.10;5.90;;;12.90;99.90;;;;;;5011431;28;20480;-86
2023/08/28 02:07:08;;;;;;;9.25;6.20;;;12.80;99.90;;;;;;5053591;28;20472;-86
2023/08/28 02:09:34;;;;;;;7.72;6.18;;;12.80;99.90;;;;;;5071662;28;20074;-86
2023/08/28 02:11:59;;;;;;;8.60;6.40;;;12.80;99.90;;;;;;5020451;28;20041;-85
2023/08/28 02:14:25;;;;;;;7.00;6.20;;;12.70;99.90;;;;;;5036363;28;20473;-85
2023/08/28 02:16:51;;;;;;;12.43;6.95;;;12.70;99.90;;;;;;5037577;28;20075;-87
2023/08/28 02:19:17;;;;;;;8.90;6.35;;;12.70;99.90;;;;;;5055007;28;20049;-87
2023/08/28 02:21:42;;;;;;;7.38;6.15;;;12.70;99.90;;;;;;5055099;28;20127;-87
2023/08/28 02:24:08;;;;;;;10.25;7.10;;;12.70;99.90;;;;;;5039567;28;20383;-87
2023/08/28 02:26:34;;;;;;;8.60;6.53;;;12.70;99.90;;;;;;5056548;28;20343;-87
2023/08/28 02:29:00;;;;;;;7.97;6.93;;;12.70;99.90;;;;;;5056784;28;20071;-86
2023/08/28 02:31:25;;;;;;;9.85;6.25;;;12.70;99.90;;;;;;5069743;28;20087;-86
2023/08/28 02:33:51;;;;;;;9.25;6.53;;;12.70;99.90;;;;;;5022277;28;20618;-86
2023/08/28 02:36:17;;;;;;;8.98;6.82;;;12.80;99.90;;;;;;5052816;28;20045;-86
2023/08/28 02:38:42;;;;;;;9.45;6.70;;;12.70;99.90;;;;;;5047893;28;20124;-85
2023/08/28 02:41:08;;;;;;;9.85;7.22;;;12.70;99.90;;;;;;5055820;28;20041;-86
2023/08/28 02:43:34;;;;;;;8.52;6.75;;;12.70;99.90;;;;;;5054063;28;20041;-86
2023/08/28 02:46:01;;;;;;;9.15;7.78;;;12.70;99.90;;;;;;5035785;28;20064;-86
2023/08/28 02:48:27;;;;;;;9.05;7.22;;;12.70;99.90;;;;;;5036083;28;20499;-87
2023/08/28 02:50:53;;;;;;;10.85;8.05;;;12.70;99.90;;;;;;5052617;28;20124;-86
2023/08/28 02:53:18;;;;;;;13.05;8.05;;;12.70;99.90;;;;;;5035680;28;20175;-86
2023/08/28 02:56:30;;;;;;;9.60;8.60;;;12.70;99.90;;;;;;5036265;28;20115;-87
2023/08/28 02:58:56;;;;;;;10.85;8.48;;;12.60;99.90;;;;;;5032930;28;20512;-86
2023/08/28 03:01:22;;;;;;;10.50;8.18;;;12.60;99.90;;;;;;5052350;28;20057;-86
2023/08/28 03:03:48;;;;;;;13.13;9.18;;;12.60;99.90;;;;;;5035839;28;20048;-88
2023/08/28 03:06:14;;;;;;;10.82;9.45;;;12.60;99.90;;;;;;5038216;28;20041;-87
2023/08/28 03:08:39;;;;;;;11.55;8.88;;;12.60;99.90;;;;;;5052408;28;20037;-87
2023/08/28 03:11:05;;;;;;;11.02;9.63;;;12.60;99.90;;;;;;5046741;28;20044;-87
2023/08/28 03:13:31;;;;;;;13.10;9.63;;;12.60;99.90;;;;;;5052194;28;20128;-87
2023/08/28 03:15:57;;;;;;;11.38;8.98;;;12.60;99.90;;;;;;5035451;28;20087;-86
2023/08/28 03:18:23;;;;;;;13.15;9.18;;;12.50;99.90;;;;;;5053839;28;20044;-87
2023/08/28 03:20:49;;;;;;;11.25;9.75;;;12.60;99.90;;;;;;5051900;28;20408;-89
2023/08/28 03:23:15;;;;;;;13.18;10.18;;;12.50;99.90;;;;;;5052008;28;20040;-87
2023/08/28 03:25:40;;;;;;;12.10;10.55;;;12.60;99.90;;;;;;5035354;28;20123;-87
2023/08/28 03:28:07;;;;;;;11.32;10.00;;;12.50;99.90;;;;;;5034830;28;20037;-88
2023/08/28 03:30:34;;;;;;;12.80;10.20;;;12.50;99.90;;;;;;5051754;28;20091;-87
2023/08/28 03:33:00;;;;;;;15.70;11.35;;;12.60;99.90;;;;;;5035274;28;20049;-87
2023/08/28 03:35:25;;;;;;;14.55;10.95;;;12.60;99.90;;;;;;5035218;28;20047;-87
2023/08/28 03:37:51;;;;;;;12.88;10.43;;;12.50;99.90;;;;;;5035530;28;20101;-87
2023/08/28 03:40:17;;;;;;;13.95;10.65;;;12.50;99.90;;;;;;5054469;28;20126;-87
2023/08/28 03:42:43;;;;;;;11.93;10.05;;;12.50;99.90;;;;;;5051534;28;20051;-87
2023/08/28 03:45:09;;;;;;;12.48;10.90;;;12.50;99.90;;;;;;5051426;28;20048;-87
2023/08/28 03:47:35;;;;;;;14.57;10.50;;;12.50;99.90;;;;;;5051641;28;20102;-87
2023/08/28 03:50:00;;;;;;;13.75;10.57;;;12.50;99.90;;;;;;5059701;28;20033;-86
2023/08/28 03:52:26;;;;;;;13.75;10.13;;;12.50;99.90;;;;;;5037680;28;20037;-87
2023/08/28 03:54:52;;;;;;;13.60;10.25;;;12.50;99.90;;;;;;5051390;28;20542;-87
2023/08/28 03:57:18;;;;;;;14.98;10.52;;;12.50;99.90;;;;;;5034597;28;20116;-87
2023/08/28 03:59:44;;;;;;;12.88;9.27;;;12.50;99.90;;;;;;5034702;28;20037;-87
2023/08/28 04:02:09;;;;;;;9.93;8.88;;;12.50;99.90;;;;;;5034180;28;20041;-86
2023/08/28 04:04:35;;;;;;;11.20;9.32;;;12.50;99.90;;;;;;5042273;28;20039;-87
2023/08/28 04:07:02;;;;;;;9.05;8.15;;;12.40;99.90;;;;;;5050761;28;20041;-87
2023/08/28 04:09:28;;;;;;;9.27;7.68;;;12.40;99.90;;;;;;5034014;28;20041;-86
2023/08/28 04:11:54;;;;;;;12.15;7.90;;;12.40;99.90;;;;;;5050496;28;20048;-86
2023/08/28 04:14:20;;;;;;;14.63;9.48;;;12.50;99.90;;;;;;5034125;28;20048;-87
2023/08/28 04:16:45;;;;;;;10.25;8.88;;;12.40;99.90;;;;;;5050744;28;20052;-86
2023/08/28 04:19:11;;;;;;;9.32;8.15;;;12.40;99.90;;;;;;5050609;28;20088;-87
2023/08/28 04:21:37;;;;;;;11.00;8.02;;;12.40;99.90;;;;;;5050807;28;20076;-88
2023/08/28 04:24:03;;;;;;;11.30;7.93;;;12.40;99.90;;;;;;5051303;28;20123;-87
2023/08/28 04:26:30;;;;;;;12.43;8.77;;;12.40;99.90;;;;;;5034729;28;20045;-88
2023/08/28 04:28:56;;;;;;;12.45;8.90;;;12.40;99.90;;;;;;5034119;28;20527;-87
2023/08/28 04:31:22;;;;;;;9.30;8.23;;;12.40;99.90;;;;;;5053763;28;20072;-88
2023/08/28 04:33:47;;;;;;;11.00;8.63;;;12.30;99.90;;;;;;5062538;28;20044;-87
2023/08/28 04:36:13;;;;;;;12.35;8.82;;;12.30;99.90;;;;;;5072094;28;20051;-88
2023/08/28 04:38:39;;;;;;;11.32;8.85;;;12.20;99.90;;;;;;5033676;28;20400;-87
2023/08/28 04:41:05;;;;;;;10.68;8.80;;;12.20;99.90;;;;;;5033393;28;20045;-88
2023/08/28 04:43:30;;;;;;;11.93;10.07;;;12.10;99.90;;;;;;5050155;28;20041;-88
2023/08/28 04:45:56;;;;;;;11.50;9.95;;;12.10;99.90;;;;;;5050391;28;20044;-88
2023/08/28 04:48:22;;;;;;;12.63;10.93;;;12.10;99.90;;;;;;5050696;28;20127;-87
2023/08/28 04:50:48;;;;;;;11.55;10.38;;;12.00;99.90;;;;;;5045703;28;20522;-87
2023/08/28 04:53:13;;;;;;;13.60;10.93;;;12.10;99.90;;;;;;5053995;28;20036;-87
2023/08/28 04:55:39;;;;;;;14.13;10.88;;;12.10;99.90;;;;;;5048645;28;20036;-87
2023/08/28 04:58:08;;;;;;;12.63;10.45;;;12.10;99.90;;;;;;5050110;28;20086;-87
2023/08/28 05:00:34;;;;;;;12.85;10.27;;;12.10;99.90;;;;;;5034134;28;20107;-88
2023/08/28 05:02:59;;;;;;;16.35;10.57;;;12.00;99.90;;;;;;5057012;28;20484;-87
2023/08/28 05:05:25;;;;;;;12.18;10.45;;;12.00;99.90;;;;;;5034948;28;20059;-87
2023/08/28 05:07:51;;;;;;;12.90;10.70;;;11.90;99.90;;;;;;5054224;28;20045;-88
2023/08/28 05:10:17;;;;;;;16.17;11.90;;;11.90;99.90;;;;;;5033653;28;20128;-88
2023/08/28 05:12:42;;;;;;;16.92;11.35;;;12.00;99.90;;;;;;5030774;28;20041;-88
2023/08/28 05:15:09;;;;;;;14.93;11.75;;;12.00;99.90;;;;;;5013769;28;20095;-87
2023/08/28 05:17:34;;;;;;;14.70;11.13;;;12.00;99.90;;;;;;5030281;28;20045;-89
2023/08/28 05:20:00;;;;;;;14.05;11.82;;;12.00;99.90;;;;;;5045388;28;20037;-88
2023/08/28 05:22:26;;;;;;;16.25;11.07;;;12.00;99.90;;;;;;5070470;28;20097;-86
2023/08/28 05:24:52;;;;;;;12.07;10.10;;;12.10;99.90;;;;;;5035331;28;20087;-87
2023/08/28 05:27:17;;;;;;;13.88;10.55;;;12.10;99.90;;;;;;5033421;28;20048;-87
2023/08/28 05:29:46;;;;;;;13.65;10.30;;;12.10;99.90;;;;;;5033572;28;20122;-88
2023/08/28 05:32:11;;;;;;;15.35;10.85;;;12.10;99.90;;;;;;5033894;28;20053;-87
2023/08/28 05:34:37;;;;;;;15.18;10.98;;;12.20;99.90;;;;;;5055189;28;20098;-87
2023/08/28 05:37:03;;;;;;;13.27;10.18;;;12.20;99.90;;;;;;5050131;28;20044;-88
2023/08/28 05:39:29;;;;;;;14.93;11.05;;;12.30;99.90;;;;;;5033424;28;20503;-87
2023/08/28 05:41:55;;;;;;;13.27;10.00;;;12.30;99.90;;;;;;5050166;28;20049;-86
2023/08/28 05:44:21;;;;;;;12.52;10.30;;;12.40;99.90;;;;;;5045678;28;20048;-87
2023/08/28 05:46:47;;;;;;;14.05;10.70;;;12.50;99.90;;;;;;5029691;28;20405;-87
2023/08/28 05:49:12;;;;;;;12.77;10.32;;;12.60;99.90;;;;;;5025620;28;20114;-86
2023/08/28 05:51:38;;;;;;;15.05;10.88;;;12.60;99.90;;;;;;5052134;28;20041;-86
2023/08/28 05:54:04;;;;;;;14.88;11.00;;;12.60;99.90;;;;;;5038836;28;20037;-86
2023/08/28 05:56:30;;;;;;;14.05;10.82;;;12.70;99.90;;;;;;5053647;28;20037;-87
2023/08/28 05:58:56;;;;;;;14.63;10.45;;;12.80;99.90;;;;;;5056119;28;20048;-87
2023/08/28 06:01:21;;;;;;;16.40;10.85;;;12.80;99.90;;;;;;5051612;28;20564;-84
2023/08/28 06:03:47;;;;;;;14.90;10.82;;;12.90;99.90;;;;;;5052023;28;20044;-87
2023/08/28 06:06:13;;;;;;;16.00;11.73;;;12.90;99.90;;;;;;5055868;28;20119;-86
2023/08/28 06:08:39;;;;;;;14.32;11.20;;;13.00;99.90;;;;;;5064862;28;20495;-86
2023/08/28 06:11:04;;;;;;;13.82;10.93;;;13.00;99.90;;;;;;5053035;28;20091;-87
2023/08/28 06:13:30;;;;;;;13.00;10.82;;;13.00;99.90;;;;;;5053305;28;20118;-86
2023/08/28 06:15:56;;;;;;;13.23;11.02;;;13.10;99.90;;;;;;5017037;28;20489;-87
2023/08/28 06:18:22;;;;;;;12.82;10.80;;;13.10;99.90;;;;;;5031650;28;20107;-86
2023/08/28 06:20:47;;;;;;;14.48;11.57;;;13.20;99.90;;;;;;5057064;28;20041;-84
2023/08/28 06:23:14;;;;;;;15.57;11.32;;;13.20;99.90;;;;;;5041016;28;20556;-86
2023/08/28 06:25:39;;;;;;;16.92;11.48;;;13.30;99.90;;;;;;5019145;28;20036;-86
2023/08/28 06:28:05;;;;;;;11.18;10.07;;;13.40;99.90;;;;;;5064916;28;20029;-87
2023/08/28 06:30:31;;;;;;;13.73;11.20;;;13.50;99.90;;;;;;5051981;28;20049;-87
2023/08/28 06:32:58;;;;;;;14.23;10.90;;;13.60;99.90;;;;;;5032373;28;20304;-88
2023/08/28 06:36:11;;;;;;;13.35;10.15;;;13.60;99.90;;;;;;5030506;28;20041;-89
2023/08/28 06:38:36;;;;;;;;;;;13.70;99.90;;;;;;5044708;28;20045;-88
2023/08/28 06:41:05;;;;;;;13.90;10.73;;;13.80;99.90;;;;;;5045789;28;19940;-88
2023/08/28 06:43:31;;;;;;;12.93;10.55;;;13.80;99.90;;;;;;5043790;28;20041;-88
2023/08/28 06:45:57;;;;;;;13.02;9.73;;;13.90;99.90;;;;;;5012582;28;20094;-88
2023/08/28 06:48:54;;;;;;;15.60;11.32;;;14.00;99.90;;;;;;5031234;28;20114;-89
2023/08/28 06:51:24;;;;;;;11.07;9.57;;;14.00;99.90;;;;;;5046044;28;20039;-87
2023/08/28 06:53:54;;;;;;;12.88;9.60;;;14.10;99.90;;;;;;5052767;28;20045;-88
2023/08/28 06:56:42;;;;;;;12.77;9.20;;;14.20;99.90;;;;;;5032625;28;20077;-90
2023/08/28 06:59:19;;;;;;;11.85;9.07;;;14.30;99.90;;;;;;5040701;28;20059;-87
2023/08/28 07:01:56;;;;;;;12.02;8.88;;;14.40;99.90;;;;;;5025960;28;20053;-87
2023/08/28 07:04:40;;;;;;;10.45;8.80;;;14.40;99.90;;;;;;5025520;28;20103;-88
2023/08/28 07:07:18;;;;;;;9.38;8.48;;;14.50;99.90;;;;;;5010570;28;20138;-90
2023/08/28 07:09:59;;;;;;;;;;;;;;;;;;;;;
2023/08/28 07:12:32;;;;;;;9.45;7.78;;;14.60;99.90;;;;;;5045112;28;20041;-90
2023/08/28 07:15:15;;;;;;;10.60;8.25;;;14.70;99.90;;;;;;5026347;28;20063;-88
2023/08/28 07:17:43;;;;;;;8.63;7.60;;;14.80;99.90;;;;;;5025480;28;20045;-87
2023/08/28 07:20:23;;;;;;;10.63;8.10;;;14.90;99.90;;;;;;5042588;28;20037;-88
2023/08/28 07:22:54;;;;;;;8.75;7.85;;;15.00;99.90;;;;;;5025016;28;20109;-87
2023/08/28 07:25:27;;;;;;;9.77;7.28;;;15.10;99.90;;;;;;5026777;28;20048;-87
2023/08/28 07:27:59;;;;;;;9.02;7.75;;;15.10;99.90;;;;;;5043755;28;20037;-90
2023/08/28 07:30:31;;;;;;;9.07;6.85;;;15.20;99.90;;;;;;5011016;28;20057;-88
2023/08/28 07:32:57;;;;;;;8.20;6.85;;;15.30;99.90;;;;;;5039965;28;20048;-87
2023/08/28 07:35:26;;;;;;;7.15;6.25;;;15.40;99.90;;;;;;5024935;28;20060;-88
2023/08/28 07:37:58;;;;;;;8.65;6.43;;;15.50;99.90;;;;;;5041857;28;20053;-86
2023/08/28 07:40:27;;;;;;;6.72;6.03;;;15.60;99.90;;;;;;5025293;28;20124;-87
2023/08/28 07:42:58;;;;;;;6.72;6.03;;;15.70;99.90;;;;;;5024977;28;20064;-87
2023/08/28 07:45:24;;;;;;;6.05;5.47;;;15.80;99.90;;;;;;5039317;28;20040;-87
2023/08/28 07:47:50;;;;;;;6.72;6.03;;;15.90;99.90;;;;;;5039866;28;20036;-87
2023/08/28 07:50:16;;;;;;;7.10;4.68;;;16.00;99.90;;;;;;5037842;28;20075;-87
2023/08/28 07:52:41;;;;;;;7.05;3.80;;;16.10;99.90;;;;;;5023749;28;20040;-87
2023/08/28 07:55:07;;;;;;;4.60;4.20;;;16.20;99.90;;;;;;5040890;28;20045;-87
2023/08/28 07:57:34;;;;;;;5.20;4.40;;;16.40;99.90;;;;;;5039720;28;20053;-88
2023/08/28 08:00:05;;;;;;;4.75;4.03;;;16.50;99.90;;;;;;5041518;28;20037;-87
2023/08/28 08:02:34;;;;;;;4.70;3.50;;;16.60;99.90;;;;;;5025781;28;20048;-88
2023/08/28 08:05:00;;;;;;;6.55;4.03;;;16.70;99.90;;;;;;5041793;28;20040;-88
2023/08/28 08:08:05;;;;;;;8.48;4.57;;;16.80;99.90;;;;;;5024529;28;20127;-88
2023/08/28 08:10:56;;;;;;;5.07;3.78;;;16.90;99.90;;;;;;5040417;28;20041;-88
2023/08/28 08:13:56;;;;;;;5.00;3.67;;;17.00;99.90;;;;;;5040502;28;20123;-88
2023/08/28 08:17:06;;;;;;;4.97;3.10;;;17.00;99.90;;;;;;5023411;28;20053;-92
2023/08/28 08:19:38;;;;;;;3.47;3.17;;;17.20;99.90;;;;;;5025803;28;20120;-87
2023/08/28 08:22:07;;;;;;;5.22;3.10;;;17.30;99.90;;;;;;5026593;28;20433;-88
2023/08/28 08:24:42;;;;;;;4.20;2.97;;;17.40;99.90;;;;;;5028474;28;20098;-90
2023/08/28 08:27:17;;;;;;;3.10;2.80;;;17.40;99.90;;;;;;5044958;28;20472;-88
2023/08/28 08:29:48;;;;;;;4.57;3.42;;;17.50;99.90;;;;;;5043191;28;20045;-87
2023/08/28 08:32:15;;;;;;;3.30;2.28;;;17.60;99.90;;;;;;5044929;28;20045;-88
2023/08/28 08:34:40;;;;;;;3.72;1.70;;;17.80;99.90;;;;;;5026694;28;20033;-86
2023/08/28 08:37:06;;;;;;;2.67;1.83;;;17.80;99.90;;;;;;5027443;28;20408;-86
2023/08/28 08:40:02;;;;;;;6.40;2.42;;;17.70;99.90;;;;;;5023142;28;20052;-91
2023/08/28 08:42:57;;;;;;;3.33;2.33;;;17.60;99.90;;;;;;5037686;28;20490;-86
2023/08/28 08:45:43;;;;;;;3.90;2.70;;;17.60;99.90;;;;;;5042470;28;20041;-90
2023/08/28 08:48:09;;;;;;;4.57;1.80;;;17.80;99.90;;;;;;5043935;28;20045;-86
2023/08/28 08:50:39;;;;;;;5.32;1.90;;;17.90;99.90;;;;;;5027740;28;20049;-90
2023/08/28 08:53:17;;;;;;;3.92;1.80;;;18.10;99.90;;;;;;5042950;28;20037;-92
2023/08/28 08:55:47;;;;;;;3.13;2.17;;;18.30;99.90;;;;;;5044243;28;20048;-87
2023/08/28 08:58:17;;;;;;;3.97;1.50;;;18.40;99.90;;;;;;5027179;28;20510;-89
2023/08/28 09:00:45;;;;;;;1.52;1.23;;;18.60;99.90;;;;;;5026140;28;20626;-87
2023/08/28 09:03:13;;;;;;;2.72;1.50;;;18.80;99.90;;;;;;5043575;28;20051;-87
2023/08/28 09:05:41;;;;;;;2.05;1.30;;;18.80;99.90;;;;;;5028091;28;20037;-85
2023/08/28 09:08:07;;;;;;;2.78;1.40;;;18.60;99.90;;;;;;5041846;28;20049;-86
2023/08/28 09:10:33;;;;;;;3.33;1.25;;;18.50;99.90;;;;;;5028171;28;20077;-89
2023/08/28 09:13:03;;;;;;;2.03;1.08;;;18.50;99.90;;;;;;5023373;28;20059;-94
2023/08/28 09:15:29;;;;;;;1.20;0.95;;;18.50;99.90;;;;;;5043787;28;21369;-85
2023/08/28 09:17:55;;;;;;;2.00;1.00;;;18.40;99.90;;;;;;5027396;28;20059;-86
2023/08/28 09:20:21;;;;;;;1.55;1.20;;;18.30;99.90;;;;;;5042005;28;20045;-88
2023/08/28 09:22:53;;;;;;;2.65;1.02;;;18.30;99.90;;;;;;5028779;28;20698;-84
2023/08/28 09:25:23;;;;;;;4.93;1.55;;;18.50;99.90;;;;;;5025515;28;20043;-87
2023/08/28 09:27:51;;;;;;;1.92;1.15;;;18.60;99.90;;;;;;5029124;28;20072;-86
2023/08/28 09:30:36;;;;;;;2.40;1.00;;;18.80;99.90;;;;;;5046166;28;21968;-85
2023/08/28 09:33:05;;;;;;;2.83;1.05;;;19.00;99.90;;;;;;5046358;28;20053;-86
2023/08/28 09:35:41;;;;;;;2.25;1.15;;;19.20;99.90;;;;;;5046234;28;20127;-86
2023/08/28 09:38:08;;;;;;;3.80;1.27;;;19.40;99.90;;;;;;5045791;28;20040;-90
2023/08/28 09:40:40;;;;;;;2.33;1.40;;;19.60;99.90;;;;;;5029918;28;20493;-85
2023/08/28 09:43:16;;;;;;;1.90;1.15;;;19.60;99.90;;;;;;5047812;28;20036;-85
2023/08/28 09:45:44;;;;;;;2.90;1.50;;;19.50;99.90;;;;;;5046750;28;21321;-85
2023/08/28 09:48:11;;;;;;;1.73;1.02;;;19.40;99.90;;;;;;5045204;28;20033;-84
2023/08/28 09:50:41;;;;;;;1.77;1.17;;;19.30;99.90;;;;;;5042590;28;20045;-88
2023/08/28 09:53:17;;;;;;;1.50;0.90;;;19.20;99.90;;;;;;5025251;28;20090;-88
2023/08/28 09:55:53;;;;;;;1.48;0.93;;;19.20;99.90;;;;;;5030785;28;20041;-87
2023/08/28 09:58:23;;;;;;;3.35;1.10;;;19.30;99.90;;;;;;5037889;28;20025;-85
2023/08/28 10:00:50;;;;;;;2.90;1.00;;;19.50;99.90;;;;;;5032756;28;20103;-91
2023/08/28 10:03:16;;;;;;;1.67;1.02;;;19.50;99.90;;;;;;5022133;28;20056;-86
2023/08/28 10:05:46;;;;;;;1.20;0.80;;;19.60;99.90;;;;;;5026816;28;20632;-87
2023/08/28 10:08:23;;;;;;;1.20;1.00;;;19.80;99.90;;;;;;5043562;28;20130;-86
2023/08/28 10:14:04;;;;;;;1.50;0.95;;;20.00;99.90;;;;;;5009023;28;20044;-87
2023/08/28 10:16:41;;;;;;;1.67;0.90;;;20.10;99.90;;;;;;5045179;28;20084;-89
2023/08/28 10:19:17;;;;;;;3.10;0.98;;;20.30;99.90;;;;;;5044077;28;20036;-89
2023/08/28 10:21:44;;;;;;;2.35;1.30;;;20.30;99.90;;;;;;5026065;28;20052;-85
2023/08/28 10:24:12;;;;;;;2.10;1.00;;;20.10;99.90;;;;;;5043081;28;20681;-86
2023/08/28 10:26:40;;;;;;;1.52;0.90;;;19.90;99.90;;;;;;5044483;28;20092;-85
2023/08/28 10:29:07;;;;;;;0.80;0.70;;;19.70;99.90;;;;;;5044555;28;20056;-87
2023/08/28 10:31:35;;;;;;;1.77;1.10;;;19.70;99.90;;;;;;5027288;28;20409;-85
2023/08/28 10:34:01;;;;;;;1.08;0.70;;;19.80;99.90;;;;;;5044140;28;20887;-86
2023/08/28 10:36:35;;;;;;;1.95;0.80;;;20.00;99.90;;;;;;5046519;28;20147;-87
2023/08/28 10:39:03;;;;;;;1.35;0.88;;;20.20;99.90;;;;;;5027973;28;20090;-84
2023/08/28 10:41:29;;;;;;;1.42;1.02;;;20.30;99.90;;;;;;5028244;28;20044;-84
2023/08/28 10:43:58;;;;;;;1.20;0.90;;;20.40;99.90;;;;;;5027263;28;20040;-86
2023/08/28 10:46:27;;;;;;;1.48;0.93;;;20.40;99.90;;;;;;5027920;28;20399;-88
2023/08/28 10:49:03;;;;;;;3.65;1.10;;;20.50;99.90;;;;;;5028641;28;20044;-86
2023/08/28 10:51:36;;;;;;;1.42;0.90;;;20.60;99.90;;;;;;5026467;28;20076;-89
2023/08/28 10:54:11;;;;;;;3.30;1.10;;;20.50;99.90;;;;;;5044626;28;20121;-92
2023/08/28 10:56:52;;;;;;;1.13;1.00;;;20.20;99.90;;;;;;5028639;28;20101;-90
2023/08/28 10:59:23;;;;;;;2.63;1.00;;;19.90;99.90;;;;;;5045590;28;20041;-92
2023/08/28 11:02:02;;;;;;;1.20;0.82;;;19.60;99.90;;;;;;5029592;28;20037;-89
2023/08/28 11:04:39;;;;;;;1.92;0.85;;;19.50;99.90;;;;;;5045145;28;20552;-91
2023/08/28 11:07:09;;;;;;;4.28;0.85;;;19.30;99.90;;;;;;5042831;28;20037;-88
2023/08/28 11:09:36;;;;;;;3.30;0.90;;;19.20;99.90;;;;;;5045566;28;20120;-85
2023/08/28 11:12:02;;;;;;;1.38;0.90;;;19.20;99.90;;;;;;5026436;28;20140;-89
2023/08/28 11:14:32;;;;;;;2.65;0.90;;;19.40;99.90;;;;;;5027890;28;20131;-86
2023/08/28 11:17:07;;;;;;;2.80;0.90;;;19.50;99.90;;;;;;5029789;28;20045;-90
2023/08/28 11:19:54;;;;;;;1.65;0.80;;;19.40;99.90;;;;;;5031225;28;20043;-90
2023/08/28 11:22:40;;;;;;;1.15;0.90;;;19.20;99.90;;;;;;5029715;28;20063;-92
2023/08/28 11:25:09;;;;;;;1.38;1.00;;;19.10;99.90;;;;;;5045053;28;20037;-89
2023/08/28 11:27:40;;;;;;;2.47;0.90;;;18.80;99.90;;;;;;5050263;28;20076;-89
2023/08/28 11:30:07;;;;;;;2.58;1.02;;;18.70;99.90;;;;;;5036394;28;20061;-86
2023/08/28 11:32:41;;;;;;;2.33;0.93;;;18.60;99.90;;;;;;5027686;28;20445;-90
2023/08/28 11:35:09;;;;;;;2.00;1.15;;;18.50;99.90;;;;;;5045640;28;20393;-88
2023/08/28 11:37:40;;;;;;;3.05;1.10;;;18.40;99.90;;;;;;5029796;28;20276;-89
2023/08/28 11:40:35;;;;;;;1.73;1.20;;;18.40;99.90;;;;;;5030595;28;20084;-94
2023/08/28 11:43:06;;;;;;;1.05;0.90;;;18.40;99.90;;;;;;5017026;28;20420;-91
2023/08/28 11:46:14;;;;;;;2.03;1.10;;;18.40;99.90;;;;;;5045579;28;20048;-91
2023/08/28 11:48:50;;;;;;;2.50;1.02;;;18.50;99.90;;;;;;5043686;28;20037;-90
2023/08/28 11:51:45;;;;;;;2.22;1.08;;;18.50;99.90;;;;;;5029361;28;20051;-90
2023/08/28 11:54:31;;;;;;;2.33;0.93;;;18.50;99.90;;;;;;5043023;28;20515;-95
2023/08/28 11:57:25;;;;;;;2.15;0.70;;;18.40;99.90;;;;;;5030024;28;20124;-92
2023/08/28 12:00:42;;;;;;;2.58;0.90;;;18.40;99.90;;;;;;4972050;28;20410;-90
2023/08/28 12:03:50;;;;;;;6.75;1.75;;;18.50;99.90;;;;;;4981649;28;20054;-96
2023/08/28 12:06:20;;;;;;;2.33;0.93;;;18.80;99.90;;;;;;4996364;28;20061;-90
2023/08/28 12:08:49;;;;;;;2.03;0.75;;;19.20;99.90;;;;;;5026966;28;20048;-88
2023/08/28 12:11:15;;;;;;;2.08;0.80;;;19.40;99.90;;;;;;5025997;28;20086;-86
2023/08/28 12:13:40;;;;;;;0.93;0.80;;;19.60;99.90;;;;;;5025107;28;20644;-89
2023/08/28 12:16:15;;;;;;;1.77;0.82;;;19.60;99.90;;;;;;5025919;28;20115;-88
2023/08/28 12:18:49;;;;;;;1.45;0.70;;;19.90;99.90;;;;;;5043029;28;20037;-85
2023/08/28 12:21:45;;;;;;;2.63;0.90;;;20.10;99.90;;;;;;5024298;28;20053;-89
2023/08/28 12:24:15;;;;;;;1.05;0.80;;;20.10;99.90;;;;;;5026727;28;20067;-92
2023/08/28 12:26:51;;;;;;;1.80;0.87;;;20.10;99.90;;;;;;5029764;28;20170;-88
2023/08/28 12:29:25;;;;;;;1.65;0.80;;;19.80;99.90;;;;;;5026985;28;20153;-88
2023/08/28 12:32:20;;;;;;;1.88;0.70;;;19.50;99.90;;;;;;5043189;28;20102;-95
2023/08/28 12:35:27;;;;;;;;;;;;;;;;;;;;;
2023/08/28 12:37:55;;;;;;;1.98;0.90;;;19.40;99.90;;;;;;5046189;28;20166;-88
2023/08/28 12:40:20;;;;;;;1.45;0.70;;;19.70;99.90;;;;;;5039254;28;20045;-87
2023/08/28 12:42:49;;;;;;;2.78;0.90;;;19.80;99.90;;;;;;5046041;28;20033;-89
2023/08/28 12:45:24;;;;;;;1.17;0.77;;;19.80;99.90;;;;;;5016793;28;21544;-90
2023/08/28 12:47:55;;;;;;;0.85;0.65;;;19.90;99.90;;;;;;5047833;28;20076;-92
2023/08/28 12:50:21;;;;;;;1.60;0.68;;;20.00;99.90;;;;;;5011796;28;20077;-88
2023/08/28 12:52:47;;;;;;;1.55;0.70;;;20.20;99.90;;;;;;5027141;28;20080;-90
2023/08/28 12:55:16;;;;;;;2.13;0.70;;;20.30;99.90;;;;;;5027658;28;20041;-92
2023/08/28 12:57:42;;;;;;;1.10;0.80;;;20.40;99.90;;;;;;5047372;28;20129;-88
2023/08/28 13:00:08;;;;;;;1.00;0.85;;;20.40;99.90;;;;;;5030561;28;20037;-90
2023/08/28 13:02:34;;;;;;;1.08;0.88;;;20.40;99.90;;;;;;5039456;28;20061;-94